Swink, Colorado
Current Conditions -  °F | °C
As of 1:53 AM on Thursday 27 Nov 2014 (Local Time) from KLHX Reporting Station
Clear Clear  
Wind Chill: 16°   Ceiling: Unl
Heat Index: 22°   Visibility: 10mi
Dew Point: 18°   Wind: 5mph
Humidity: 85%   Direction: 310°NW
Pressure: 30.33"   Gusts: NA
Location:  38.01°N, 103.63°W
Report Text: KLHX 270853Z AUTO 31004KT 10SM CLR M06/M08 A3033 RMK AO2 SLP285 T10561078 53002
Loading
Personal Weather Stations






























Interactive Weather Map New forecast layout! Learn more

10-Day Weather Forecast

Advertisements
Track Severe Weather on mobile